createdAt,value
2023-05-05T00:01:35.015Z,0.70
2023-05-05T00:04:01.899Z,0.60
2023-05-05T00:06:31.627Z,0.60
2023-05-05T00:08:58.515Z,0.60
2023-05-05T00:11:26.047Z,0.65
2023-05-05T00:13:52.871Z,0.60
2023-05-05T00:16:20.107Z,0.70
2023-05-05T00:18:48.389Z,0.70
2023-05-05T00:21:15.758Z,0.52
2023-05-05T00:23:42.719Z,0.60
2023-05-05T00:26:09.445Z,0.70
2023-05-05T00:28:38.002Z,0.50
2023-05-05T00:31:09.585Z,0.60
2023-05-05T00:33:37.708Z,0.60
2023-05-05T00:36:07.044Z,0.50
2023-05-05T00:38:33.983Z,0.60
2023-05-05T00:41:00.824Z,0.50
2023-05-05T00:43:27.843Z,0.52
2023-05-05T00:46:02.129Z,0.60
2023-05-05T00:48:30.799Z,0.70
2023-05-05T00:50:58.333Z,0.60
2023-05-05T00:53:27.194Z,0.60
2023-05-05T00:55:54.268Z,0.60
2023-05-05T00:58:21.142Z,0.60
2023-05-05T01:00:48.562Z,0.50
2023-05-05T01:03:15.590Z,0.60
2023-05-05T01:06:05.221Z,0.60
2023-05-05T01:08:54.052Z,0.50
2023-05-05T01:11:35.653Z,0.60
2023-05-05T01:14:16.970Z,0.55
2023-05-05T01:16:55.226Z,0.50
2023-05-05T01:19:59.604Z,0.70
2023-05-05T01:22:33.063Z,0.60
2023-05-05T01:25:33.725Z,0.60
2023-05-05T01:28:25.457Z,0.60
2023-05-05T01:31:51.473Z,0.60
2023-05-05T01:34:26.354Z,0.57
2023-05-05T01:37:10.003Z,0.50
2023-05-05T01:39:38.757Z,0.55
2023-05-05T01:42:10.277Z,0.52
2023-05-05T01:44:38.330Z,0.60
2023-05-05T01:47:06.452Z,0.55
2023-05-05T01:49:34.598Z,0.52
2023-05-05T01:52:03.804Z,0.70
2023-05-05T01:54:33.559Z,0.60
2023-05-05T01:59:29.116Z,0.60
2023-05-05T02:01:59.641Z,0.52
2023-05-05T02:04:28.393Z,0.50
2023-05-05T02:06:58.342Z,0.60
2023-05-05T02:09:28.734Z,0.60
2023-05-05T02:14:28.977Z,0.60
2023-05-05T02:16:58.155Z,0.60
2023-05-05T02:19:30.912Z,0.70
2023-05-05T02:21:58.078Z,0.60
2023-05-05T02:24:26.484Z,0.65
2023-05-05T02:26:56.018Z,0.70
2023-05-05T02:29:38.847Z,0.60
2023-05-05T02:32:09.419Z,0.50
2023-05-05T02:34:40.223Z,0.60
2023-05-05T02:37:15.770Z,0.50
2023-05-05T02:39:54.786Z,0.60
2023-05-05T02:42:22.961Z,0.60
2023-05-05T02:47:20.980Z,0.60
2023-05-05T02:49:50.290Z,0.65
2023-05-05T02:52:17.029Z,0.60
2023-05-05T02:54:47.616Z,0.60
2023-05-05T02:57:20.276Z,0.70
2023-05-05T03:00:10.639Z,0.60
2023-05-05T03:02:47.246Z,0.70
2023-05-05T03:05:21.251Z,0.63
2023-05-05T03:08:03.385Z,0.60
2023-05-05T03:10:40.328Z,0.80
2023-05-05T03:13:11.499Z,0.60
2023-05-05T03:15:49.318Z,0.60
2023-05-05T03:18:22.474Z,0.70
2023-05-05T03:20:56.039Z,0.60
2023-05-05T03:23:23.408Z,0.52
2023-05-05T03:25:55.390Z,0.70
2023-05-05T03:28:34.761Z,0.80
2023-05-05T03:31:20.362Z,0.60
2023-05-05T03:33:51.926Z,0.60
2023-05-05T03:36:21.586Z,0.60
2023-05-05T03:38:51.130Z,0.60
2023-05-05T03:41:23.644Z,0.57
2023-05-05T03:43:51.944Z,0.45
2023-05-05T03:46:19.220Z,0.57
2023-05-05T03:48:46.344Z,0.60
2023-05-05T03:51:13.573Z,0.68
2023-05-05T03:53:40.841Z,0.50
2023-05-05T03:56:08.977Z,0.60
2023-05-05T03:58:35.754Z,0.60
2023-05-05T04:01:02.577Z,0.68
2023-05-05T04:03:29.577Z,0.60
2023-05-05T04:05:56.379Z,0.68
2023-05-05T04:08:23.970Z,0.70
2023-05-05T04:10:51.139Z,0.60
2023-05-05T04:13:18.098Z,0.60
2023-05-05T04:15:46.435Z,0.60
2023-05-05T04:18:14.360Z,0.70
2023-05-05T04:20:41.162Z,0.60
2023-05-05T04:23:08.433Z,0.50
2023-05-05T04:25:35.814Z,0.50
2023-05-05T04:28:02.913Z,0.70
2023-05-05T04:30:33.547Z,0.70
2023-05-05T04:33:00.990Z,0.73
2023-05-05T04:35:28.033Z,0.68
2023-05-05T04:37:54.944Z,0.75
2023-05-05T04:40:22.198Z,0.70
2023-05-05T04:42:49.460Z,0.70
2023-05-05T04:45:16.825Z,0.60
2023-05-05T04:47:43.685Z,0.60
2023-05-05T04:50:11.539Z,0.60
2023-05-05T04:52:39.499Z,0.70
2023-05-05T04:55:06.854Z,0.50
2023-05-05T04:57:33.645Z,0.55
2023-05-05T05:00:00.976Z,0.50
2023-05-05T05:02:27.982Z,0.50
2023-05-05T05:04:54.867Z,0.40
2023-05-05T05:07:21.703Z,0.40
2023-05-05T05:09:48.553Z,0.40
2023-05-05T05:12:16.707Z,0.47
2023-05-05T05:14:43.561Z,0.60
2023-05-05T05:17:10.242Z,0.50
2023-05-05T05:19:37.013Z,0.65
2023-05-05T05:22:04.104Z,0.60
2023-05-05T05:24:34.737Z,0.40
2023-05-05T05:27:01.686Z,0.40
2023-05-05T05:29:28.862Z,0.40
2023-05-05T05:31:57.757Z,0.45
2023-05-05T05:34:24.782Z,0.52
2023-05-05T05:36:54.814Z,0.70
2023-05-05T05:41:50.057Z,0.60
2023-05-05T05:44:16.865Z,0.60
2023-05-05T05:46:44.010Z,0.80
2023-05-05T05:49:13.506Z,0.80
2023-05-05T05:51:40.602Z,0.80
2023-05-05T05:54:07.416Z,0.70
2023-05-05T05:56:35.692Z,0.70
2023-05-05T05:59:04.596Z,0.60
2023-05-05T06:01:31.705Z,0.90
2023-05-05T06:03:58.601Z,1.25
2023-05-05T06:06:25.592Z,0.50
2023-05-05T06:08:52.387Z,0.50
2023-05-05T06:11:19.294Z,0.68
2023-05-05T06:13:46.212Z,0.60
2023-05-05T06:16:16.158Z,0.80
2023-05-05T06:18:45.055Z,0.70
2023-05-05T06:21:13.332Z,0.60
2023-05-05T06:23:43.275Z,0.60
2023-05-05T06:26:10.123Z,0.68
2023-05-05T06:28:37.337Z,0.95
2023-05-05T06:31:04.834Z,0.70
2023-05-05T06:33:31.678Z,1.00
2023-05-05T06:35:58.581Z,0.70
2023-05-05T06:38:25.678Z,1.00
2023-05-05T06:40:52.893Z,0.55
2023-05-05T06:43:19.692Z,0.50
2023-05-05T06:45:53.335Z,0.52
2023-05-05T06:48:20.690Z,0.65
2023-05-05T06:50:47.827Z,0.60
2023-05-05T06:53:14.666Z,0.52
2023-05-05T06:55:46.286Z,0.60
2023-05-05T06:58:13.257Z,0.50
2023-05-05T07:00:42.833Z,0.60
2023-05-05T07:03:09.779Z,0.50
2023-05-05T07:05:36.865Z,0.50
2023-05-05T07:08:03.775Z,1.10
2023-05-05T07:10:34.212Z,0.60
2023-05-05T07:13:01.321Z,0.60
2023-05-05T07:15:29.570Z,0.60
2023-05-05T07:17:57.130Z,0.80
2023-05-05T07:20:24.317Z,0.82
2023-05-05T07:22:51.306Z,0.80
2023-05-05T07:25:18.260Z,0.70
2023-05-05T07:27:45.344Z,0.40
2023-05-05T07:30:16.295Z,0.35
2023-05-05T07:32:44.678Z,0.40
2023-05-05T07:35:11.546Z,0.40
2023-05-05T07:37:38.449Z,0.43
2023-05-05T07:40:06.332Z,0.50
2023-05-05T07:42:35.945Z,0.45
2023-05-05T07:45:03.326Z,0.50
2023-05-05T07:47:30.399Z,0.60
2023-05-05T07:49:57.633Z,0.50
2023-05-05T07:52:37.324Z,0.55
2023-05-05T07:55:18.243Z,0.40
2023-05-05T07:57:44.991Z,0.40
2023-05-05T08:00:13.473Z,0.60
2023-05-05T08:02:41.265Z,0.57
2023-05-05T08:05:08.778Z,0.40
2023-05-05T08:07:38.184Z,0.68
2023-05-05T08:10:05.420Z,0.47
2023-05-05T08:12:32.320Z,0.70
2023-05-05T08:14:59.092Z,0.80
2023-05-05T08:17:29.133Z,1.40
2023-05-05T08:19:56.186Z,0.90
2023-05-05T08:22:23.040Z,0.80
2023-05-05T08:24:53.013Z,0.60
2023-05-05T08:27:19.750Z,0.70
2023-05-05T08:29:46.450Z,0.70
2023-05-05T08:32:13.486Z,0.80
2023-05-05T08:34:40.504Z,0.70
2023-05-05T08:37:10.351Z,1.00
2023-05-05T08:39:40.694Z,1.00
2023-05-05T08:44:37.057Z,0.90
2023-05-05T08:47:08.839Z,0.85
2023-05-05T08:49:46.110Z,0.97
2023-05-05T08:52:21.150Z,0.95
2023-05-05T08:54:57.238Z,0.90
2023-05-05T08:57:46.465Z,1.08
2023-05-05T09:00:13.747Z,1.00
2023-05-05T09:02:42.995Z,1.13
2023-05-05T09:05:12.843Z,1.03
2023-05-05T09:07:44.049Z,0.90
2023-05-05T09:10:12.289Z,1.00
2023-05-05T09:12:40.647Z,1.02
2023-05-05T09:15:11.867Z,0.68
2023-05-05T09:17:39.544Z,0.80
2023-05-05T09:20:08.666Z,0.80
2023-05-05T09:22:46.808Z,0.80
2023-05-05T09:25:15.696Z,0.65
2023-05-05T09:27:47.968Z,0.70
2023-05-05T09:30:17.283Z,0.70
2023-05-05T09:32:54.050Z,0.70
2023-05-05T09:35:22.548Z,0.63
2023-05-05T09:37:49.563Z,0.80
2023-05-05T09:40:18.513Z,0.75
2023-05-05T09:42:45.769Z,0.60
2023-05-05T09:45:20.749Z,0.73
2023-05-05T09:47:48.627Z,0.68
2023-05-05T09:50:21.444Z,0.70
2023-05-05T09:52:59.126Z,0.90
2023-05-05T09:55:25.946Z,0.65
2023-05-05T09:57:53.062Z,0.60
2023-05-05T10:00:20.374Z,0.60
2023-05-05T10:02:47.203Z,0.73
2023-05-05T10:05:16.298Z,0.68
2023-05-05T10:07:47.973Z,0.60
2023-05-05T10:10:20.790Z,0.60
2023-05-05T10:12:49.456Z,0.60
2023-05-05T10:15:17.177Z,0.70
2023-05-05T10:18:05.960Z,0.60
2023-05-05T10:20:38.709Z,0.80
2023-05-05T10:23:10.384Z,0.80
2023-05-05T10:25:46.544Z,0.80
2023-05-05T10:28:20.176Z,0.80
2023-05-05T10:30:51.233Z,0.70
2023-05-05T10:33:32.205Z,0.85
2023-05-05T10:36:02.477Z,0.82
2023-05-05T10:38:33.458Z,0.80
2023-05-05T10:41:02.151Z,0.90
2023-05-05T10:43:31.420Z,0.80
2023-05-05T10:45:59.622Z,0.80
2023-05-05T10:49:07.760Z,0.80
2023-05-05T10:51:49.599Z,1.17
2023-05-05T10:54:32.684Z,1.08
2023-05-05T10:57:04.876Z,1.10
2023-05-05T10:59:37.875Z,1.10
2023-05-05T11:02:24.069Z,1.13
2023-05-05T11:05:12.241Z,1.20
2023-05-05T11:07:39.773Z,1.15
2023-05-05T11:10:11.945Z,1.10
2023-05-05T11:12:54.336Z,1.00
2023-05-05T11:15:24.150Z,0.93
2023-05-05T11:17:51.110Z,1.20
2023-05-05T11:20:18.341Z,0.80
2023-05-05T11:23:03.549Z,0.80
2023-05-05T11:25:40.911Z,0.70
2023-05-05T11:28:11.977Z,0.70
2023-05-05T11:30:58.115Z,0.60
2023-05-05T11:33:32.120Z,0.40
2023-05-05T11:36:06.117Z,0.40
2023-05-05T11:38:36.409Z,0.40
2023-05-05T11:43:39.742Z,0.50
2023-05-05T11:46:14.032Z,0.60
2023-05-05T11:48:50.669Z,0.60
2023-05-05T11:51:19.983Z,0.60
2023-05-05T11:53:48.782Z,0.60
2023-05-05T11:56:21.757Z,0.70
2023-05-05T11:58:49.870Z,0.65
2023-05-05T12:01:16.869Z,0.60
2023-05-05T12:03:45.848Z,0.60
2023-05-05T12:06:13.389Z,0.60
2023-05-05T12:08:41.302Z,0.50
2023-05-05T12:11:10.741Z,0.68
2023-05-05T12:13:37.515Z,0.70
2023-05-05T12:16:11.069Z,0.70
2023-05-05T12:18:38.365Z,0.68
2023-05-05T12:21:18.779Z,0.77
2023-05-05T12:23:46.018Z,0.98
2023-05-05T12:26:29.420Z,0.90
2023-05-05T12:28:57.928Z,0.82
2023-05-05T12:31:37.835Z,0.80
2023-05-05T12:34:06.396Z,0.70
2023-05-05T12:36:34.069Z,0.70
2023-05-05T12:39:00.892Z,0.80
2023-05-05T12:41:28.199Z,0.80
2023-05-05T12:43:59.427Z,0.90
2023-05-05T12:46:26.864Z,0.80
2023-05-05T12:49:07.542Z,1.05
2023-05-05T12:51:35.977Z,0.90
2023-05-05T12:54:09.517Z,0.90
2023-05-05T12:56:41.842Z,1.00
2023-05-05T12:59:09.606Z,1.00
2023-05-05T13:01:57.757Z,1.10
2023-05-05T13:04:27.312Z,0.90
2023-05-05T13:07:14.297Z,1.27
2023-05-05T13:09:44.067Z,1.10
2023-05-05T13:12:13.833Z,1.40
2023-05-05T13:14:41.490Z,1.10
2023-05-05T13:17:09.116Z,0.93
2023-05-05T13:19:41.708Z,1.00
2023-05-05T13:22:10.392Z,1.10
2023-05-05T13:24:47.130Z,1.40
2023-05-05T13:27:18.310Z,1.23
2023-05-05T13:29:45.050Z,1.17
2023-05-05T13:32:11.771Z,1.20
2023-05-05T13:34:39.249Z,1.10
2023-05-05T13:37:06.486Z,1.20
2023-05-05T13:39:35.558Z,1.40
2023-05-05T13:42:02.657Z,1.50
2023-05-05T13:44:29.539Z,1.40
2023-05-05T13:46:56.518Z,1.33
2023-05-05T13:49:23.723Z,1.60
2023-05-05T13:51:53.776Z,1.20
2023-05-05T13:54:21.760Z,1.05
2023-05-05T13:56:51.567Z,1.10
2023-05-05T13:59:19.048Z,1.00
2023-05-05T14:01:46.281Z,1.25
2023-05-05T14:04:13.222Z,1.10
2023-05-05T14:06:40.591Z,1.30
2023-05-05T14:09:08.391Z,1.23
2023-05-05T14:11:35.531Z,1.25
2023-05-05T14:14:02.940Z,1.15
2023-05-05T14:16:29.804Z,1.10
2023-05-05T14:18:57.342Z,1.30
2023-05-05T14:21:24.577Z,1.30
2023-05-05T14:23:51.303Z,1.40
2023-05-05T14:26:18.152Z,1.30
2023-05-05T14:28:51.730Z,1.30
2023-05-05T14:31:23.225Z,1.10
2023-05-05T14:33:54.039Z,1.23
2023-05-05T14:36:22.355Z,1.00
2023-05-05T14:38:55.719Z,1.10
2023-05-05T14:41:26.344Z,0.70
2023-05-05T14:43:57.178Z,0.60
2023-05-05T14:46:24.484Z,0.60
2023-05-05T14:48:52.109Z,0.60
2023-05-05T14:51:22.321Z,0.60
2023-05-05T14:53:50.356Z,0.50
2023-05-05T14:56:19.798Z,0.90
2023-05-05T14:58:48.890Z,0.80
2023-05-05T15:01:24.065Z,0.60
2023-05-05T15:03:55.091Z,0.60
2023-05-05T15:06:25.833Z,0.70
2023-05-05T15:08:53.665Z,0.60
2023-05-05T15:11:23.394Z,0.70
2023-05-05T15:13:51.814Z,0.90
2023-05-05T15:16:24.296Z,0.70
2023-05-05T15:18:51.452Z,0.80
2023-05-05T15:21:18.445Z,0.90
2023-05-05T15:23:45.727Z,0.75
2023-05-05T15:26:12.540Z,0.82
2023-05-05T15:28:39.530Z,0.70
2023-05-05T15:31:06.717Z,0.60
2023-05-05T15:33:33.975Z,0.60
2023-05-05T15:36:03.083Z,0.68
2023-05-05T15:38:30.365Z,0.70
2023-05-05T15:40:58.655Z,0.80
2023-05-05T15:43:25.870Z,0.80
2023-05-05T15:45:55.486Z,0.80
2023-05-05T15:48:22.575Z,0.60
2023-05-05T15:50:49.435Z,0.80
2023-05-05T15:53:16.590Z,0.80
2023-05-05T15:55:46.380Z,0.70
2023-05-05T15:58:13.278Z,0.68
2023-05-05T16:00:43.278Z,0.60
2023-05-05T16:03:10.789Z,0.80
2023-05-05T16:05:37.747Z,0.80
2023-05-05T16:08:11.139Z,0.80
2023-05-05T16:10:41.794Z,0.70
2023-05-05T16:13:08.949Z,0.70
2023-05-05T16:15:35.972Z,0.82
2023-05-05T16:18:05.494Z,0.80
2023-05-05T16:20:32.813Z,0.70
2023-05-05T16:22:59.525Z,0.70
2023-05-05T16:25:26.342Z,0.60
2023-05-05T16:27:56.614Z,0.70
2023-05-05T16:30:23.441Z,0.70
2023-05-05T16:32:51.770Z,0.60
2023-05-05T16:35:18.914Z,0.50
2023-05-05T16:37:45.761Z,0.70
2023-05-05T16:40:12.896Z,0.60
2023-05-05T16:42:39.707Z,0.60
2023-05-05T16:45:07.453Z,0.57
2023-05-05T16:47:34.596Z,0.70
2023-05-05T16:50:01.416Z,0.60
2023-05-05T16:52:28.071Z,0.70
2023-05-05T16:54:57.414Z,0.60
2023-05-05T16:57:29.540Z,0.55
2023-05-05T16:59:59.099Z,0.60
2023-05-05T17:02:26.065Z,0.65
2023-05-05T17:04:55.351Z,0.68
2023-05-05T17:07:22.451Z,0.90
2023-05-05T17:09:49.293Z,0.75
2023-05-05T17:12:18.814Z,0.80
2023-05-05T17:14:46.042Z,0.60
2023-05-05T17:17:13.020Z,0.80
2023-05-05T17:19:39.809Z,0.80
2023-05-05T17:22:08.962Z,0.70
2023-05-05T17:24:35.770Z,0.80
2023-05-05T17:27:02.667Z,0.77
2023-05-05T17:29:29.657Z,0.77
2023-05-05T17:31:56.425Z,0.98
2023-05-05T17:34:25.825Z,0.80
2023-05-05T17:36:52.709Z,0.82
2023-05-05T17:39:27.366Z,0.70
2023-05-05T17:41:55.432Z,0.80
2023-05-05T17:44:22.275Z,0.90
2023-05-05T17:46:49.049Z,0.90
2023-05-05T17:49:16.471Z,0.77
2023-05-05T17:51:43.284Z,0.90
2023-05-05T17:54:10.101Z,1.00
2023-05-05T17:56:38.036Z,1.10
2023-05-05T17:59:06.053Z,1.00
2023-05-05T18:01:33.544Z,1.00
2023-05-05T18:04:00.833Z,0.90
2023-05-05T18:06:29.588Z,1.00
2023-05-05T18:08:56.644Z,1.00
2023-05-05T18:11:31.042Z,1.10
2023-05-05T18:14:02.078Z,0.90
2023-05-05T18:16:32.101Z,0.90
2023-05-05T18:19:02.551Z,1.10
2023-05-05T18:21:29.872Z,0.95
2023-05-05T18:24:11.667Z,0.90
2023-05-05T18:26:51.663Z,0.90
2023-05-05T18:29:22.174Z,1.10
2023-05-05T18:31:53.065Z,1.20
2023-05-05T18:34:31.301Z,1.17
2023-05-05T18:37:00.888Z,1.17
2023-05-05T18:39:28.400Z,1.30
2023-05-05T18:41:55.762Z,1.50
2023-05-05T18:44:26.136Z,1.20
2023-05-05T18:46:58.749Z,1.40
2023-05-05T18:49:31.436Z,1.20
2023-05-05T18:52:04.575Z,1.40
2023-05-05T18:54:31.768Z,1.33
2023-05-05T18:57:03.819Z,1.10
2023-05-05T18:59:31.762Z,1.30
2023-05-05T19:01:59.780Z,1.25
2023-05-05T19:04:31.704Z,1.08
2023-05-05T19:07:00.065Z,1.20
2023-05-05T19:09:30.882Z,1.20
2023-05-05T19:11:59.053Z,1.05
2023-05-05T19:14:29.526Z,1.25
2023-05-05T19:17:01.831Z,1.55
2023-05-05T19:19:36.082Z,1.30
2023-05-05T19:22:06.228Z,1.30
2023-05-05T19:24:35.673Z,1.20
2023-05-05T19:27:09.309Z,1.60
2023-05-05T19:29:42.775Z,1.42
2023-05-05T19:32:09.849Z,1.52
2023-05-05T19:34:36.616Z,1.33
2023-05-05T19:37:06.600Z,1.42
2023-05-05T19:39:33.601Z,1.20
2023-05-05T19:42:03.781Z,1.50
2023-05-05T19:44:34.931Z,1.40
2023-05-05T19:47:02.199Z,1.50
2023-05-05T19:49:32.168Z,1.40
2023-05-05T19:52:01.645Z,1.30
2023-05-05T19:54:28.828Z,1.40
2023-05-05T19:56:57.314Z,1.30
2023-05-05T19:59:24.156Z,1.38
2023-05-05T20:01:51.845Z,1.30
2023-05-05T20:04:24.035Z,1.30
2023-05-05T20:07:33.614Z,1.70
2023-05-05T20:10:09.815Z,1.30
2023-05-05T20:12:36.926Z,1.20
2023-05-05T20:15:04.305Z,1.20
2023-05-05T20:17:35.179Z,2.90
2023-05-05T20:20:01.899Z,1.20
2023-05-05T20:22:40.123Z,1.20
2023-05-05T20:25:08.983Z,1.30
2023-05-05T20:27:46.008Z,1.20
2023-05-05T20:30:16.369Z,1.10
2023-05-05T20:35:36.365Z,1.17
2023-05-05T20:38:07.262Z,1.10
2023-05-05T20:40:34.244Z,1.20
2023-05-05T20:43:01.093Z,1.10
2023-05-05T20:45:29.848Z,0.98
2023-05-05T20:47:56.681Z,1.25
2023-05-05T20:50:28.142Z,1.10
2023-05-05T20:52:55.591Z,0.95
2023-05-05T20:55:22.611Z,1.17
2023-05-05T20:57:49.399Z,1.02
2023-05-05T21:00:16.330Z,1.00
2023-05-05T21:02:46.731Z,1.00
2023-05-05T21:05:14.445Z,1.00
2023-05-05T21:07:42.967Z,0.98
2023-05-05T21:10:11.257Z,1.00
2023-05-05T21:12:41.037Z,0.90
2023-05-05T21:15:11.727Z,1.08
2023-05-05T21:17:43.871Z,1.10
2023-05-05T21:20:14.434Z,0.90
2023-05-05T21:22:45.135Z,1.02
2023-05-05T21:25:20.922Z,1.00
2023-05-05T21:27:48.659Z,1.08
2023-05-05T21:30:15.900Z,3.05
2023-05-05T21:32:43.151Z,1.00
2023-05-05T21:35:10.229Z,1.00
2023-05-05T21:37:39.046Z,0.90
2023-05-05T21:40:09.511Z,0.85
2023-05-05T21:42:36.882Z,0.82
2023-05-05T21:45:03.956Z,0.90
2023-05-05T21:47:30.808Z,0.80
2023-05-05T21:49:58.262Z,1.00
2023-05-05T21:52:24.975Z,0.80
2023-05-05T21:54:51.659Z,0.80
2023-05-05T21:57:18.482Z,0.80
2023-05-05T21:59:45.201Z,0.77
2023-05-05T22:02:12.112Z,0.85
2023-05-05T22:04:38.983Z,0.80
2023-05-05T22:07:05.795Z,0.80
2023-05-05T22:09:32.472Z,0.70
2023-05-05T22:11:59.562Z,0.70
2023-05-05T22:14:26.337Z,0.70
2023-05-05T22:16:53.055Z,0.90
2023-05-05T22:19:19.825Z,0.70
2023-05-05T22:21:48.661Z,0.70
2023-05-05T22:24:15.436Z,0.70
2023-05-05T22:26:44.408Z,0.70
2023-05-05T22:29:11.342Z,0.70
2023-05-05T22:31:41.470Z,0.65
2023-05-05T22:34:08.454Z,0.70
2023-05-05T22:36:42.910Z,0.75
2023-05-05T22:39:10.322Z,0.70
2023-05-05T22:41:43.909Z,0.70
2023-05-05T22:44:10.709Z,0.68
2023-05-05T22:46:37.544Z,0.63
2023-05-05T22:49:04.312Z,0.70
2023-05-05T22:51:34.658Z,0.73
2023-05-05T22:54:01.592Z,0.77
2023-05-05T22:56:28.348Z,0.90
2023-05-05T22:58:56.367Z,0.70
2023-05-05T23:01:23.724Z,0.80
2023-05-05T23:03:50.549Z,0.90
2023-05-05T23:06:20.729Z,0.85
2023-05-05T23:08:48.927Z,0.80
2023-05-05T23:11:15.709Z,0.82
2023-05-05T23:13:42.584Z,0.77
2023-05-05T23:16:09.325Z,0.80
2023-05-05T23:18:36.627Z,0.82
2023-05-05T23:21:03.820Z,0.90
2023-05-05T23:23:31.157Z,0.88
2023-05-05T23:25:57.949Z,0.95
2023-05-05T23:28:24.797Z,0.90
2023-05-05T23:30:51.582Z,0.90
2023-05-05T23:33:18.327Z,0.90
2023-05-05T23:35:45.605Z,1.00
2023-05-05T23:38:12.352Z,0.93
2023-05-05T23:40:39.053Z,1.10
2023-05-05T23:43:06.040Z,1.10
2023-05-05T23:45:32.771Z,1.10
2023-05-05T23:47:59.546Z,0.90
2023-05-05T23:50:27.818Z,1.00
2023-05-05T23:52:54.800Z,1.00
2023-05-05T23:55:21.714Z,1.00
2023-05-05T23:57:48.678Z,1.08
